Terminal Aerodrome Forecast
Issued by NWS Paducah, KY

Home | Current Version | Previous Version | Text Only | Print | Product List | Glossary On
Versions: 1 2 3 4 5 6 7 8 9 10 11 12 13 14 15 16 17 18 19 20 21 22 23
000
FTUS43 KPAH 191259 AAA
TAFEVV
TAF AMD
KEVV 191259Z 1913/2012 VRB04KT 6SM -SHRA SCT015 BKN080
      TEMPO 1913/1914 4SM -SHRA BKN015
     FM191400 22004KT P6SM FEW030 SCT080
     FM191700 24006KT P6SM SCT045
     FM200000 19003KT P6SM SKC=

USA.gov is the U.S. government's official web portal to all federal, state and local government web resources and services.